TimeMST,TemperatureF,Dew PointF,Humidity,Sea Level PressureIn,VisibilityMPH,Wind Direction,Wind SpeedMPH,Gust SpeedMPH,PrecipitationIn,Events,Conditions,WindDirDegrees,DateUTC
12:53 AM,3.9,-2.0,76,30.13,10.0,Calm,Calm,-,N/A,,Overcast,0,2013-02-01 07:53:00
1:53 AM,3.9,-0.9,80,30.11,10.0,SE,3.5,-,N/A,,Overcast,130,2013-02-01 08:53:00
2:53 AM,5.0,-0.0,80,30.09,10.0,Calm,Calm,-,N/A,,Overcast,0,2013-02-01 09:53:00
3:53 AM,6.1,-0.0,76,30.08,10.0,Calm,Calm,-,N/A,,Mostly Cloudy,0,2013-02-01 10:53:00
4:53 AM,1.9,-2.0,83,30.07,10.0,SSW,4.6,-,N/A,,Partly Cloudy,200,2013-02-01 11:53:00
5:53 AM,8.1,3.0,80,30.06,10.0,WSW,10.4,-,N/A,,Partly Cloudy,250,2013-02-01 12:53:00
6:21 AM,10.4,5.0,79,29.91,10.0,WSW,13.8,-,N/A,,Overcast,250,2013-02-01 13:21:00
6:53 AM,12.0,6.1,77,30.06,10.0,WSW,12.7,-,N/A,,Overcast,250,2013-02-01 13:53:00
7:10 AM,12.2,6.8,79,29.91,10.0,WSW,12.7,-,N/A,,Overcast,250,2013-02-01 14:10:00
7:18 AM,10.4,6.8,85,29.91,10.0,WSW,17.3,-,N/A,,Overcast,240,2013-02-01 14:18:00
7:36 AM,10.4,5.0,79,29.93,10.0,WSW,11.5,-,N/A,,Scattered Clouds,240,2013-02-01 14:36:00
7:53 AM,10.0,5.0,80,30.07,10.0,SSW,9.2,-,N/A,,Partly Cloudy,210,2013-02-01 14:53:00
8:53 AM,12.9,7.0,77,30.09,10.0,WSW,9.2,-,N/A,,Overcast,240,2013-02-01 15:53:00
9:01 AM,12.2,6.8,79,29.94,10.0,WSW,9.2,-,N/A,,Overcast,250,2013-02-01 16:01:00
9:53 AM,15.1,9.0,77,30.07,10.0,WSW,13.8,-,N/A,,Overcast,250,2013-02-01 16:53:00
10:40 AM,17.6,10.4,73,29.95,10.0,WSW,12.7,-,N/A,,Overcast,250,2013-02-01 17:40:00
10:53 AM,18.0,12.9,81,30.09,10.0,WSW,12.7,-,N/A,,Overcast,250,2013-02-01 17:53:00
11:39 AM,21.2,19.4,93,29.96,5.0,WSW,18.4,-,N/A,,Overcast,250,2013-02-01 18:39:00
11:53 AM,21.0,19.0,92,30.09,7.0,West,15.0,-,N/A,,Overcast,260,2013-02-01 18:53:00
12:53 PM,23.0,19.4,86,29.97,6.0,WSW,12.7,-,N/A,,Overcast,240,2013-02-01 19:53:00
1:02 PM,23.0,21.2,93,29.97,1.8,WSW,10.4,-,0.00,Snow,Light Snow,240,2013-02-01 20:02:00
1:07 PM,24.8,21.2,86,29.97,0.8,WSW,11.5,-,0.00,Snow,Light Snow,240,2013-02-01 20:07:00
1:20 PM,24.8,21.2,86,29.97,1.2,SW,11.5,-,0.00,Snow,Light Snow,230,2013-02-01 20:20:00
1:32 PM,24.8,21.2,86,29.97,0.8,WSW,9.2,-,0.00,Snow,Light Snow,240,2013-02-01 20:32:00
1:38 PM,24.8,21.2,86,29.97,1.0,WSW,9.2,-,0.00,Snow,Light Snow,240,2013-02-01 20:38:00
1:43 PM,24.8,21.2,86,29.97,2.0,WSW,8.1,-,0.00,Snow,Light Snow,240,2013-02-01 20:43:00
1:47 PM,24.8,21.2,86,29.97,1.8,WSW,8.1,-,0.00,Snow,Light Snow,240,2013-02-01 20:47:00
1:53 PM,25.0,21.9,88,30.09,1.5,WSW,8.1,-,0.00,Snow,Light Snow,250,2013-02-01 20:53:00
2:38 PM,26.6,23.0,86,29.98,1.8,WSW,6.9,-,0.00,Snow,Light Snow,250,2013-02-01 21:38:00
2:45 PM,26.6,23.0,86,29.98,2.5,WSW,6.9,-,0.00,Snow,Light Snow,250,2013-02-01 21:45:00
2:53 PM,26.1,23.0,88,30.09,1.8,WSW,8.1,-,0.00,Snow,Light Snow,240,2013-02-01 21:53:00
3:02 PM,26.6,23.0,86,29.98,2.0,WSW,8.1,-,0.00,Snow,Light Snow,250,2013-02-01 22:02:00
3:16 PM,26.6,23.0,86,29.98,4.0,WSW,5.8,-,0.00,Snow,Light Snow,240,2013-02-01 22:16:00
3:25 PM,26.6,23.0,86,29.98,1.8,WSW,5.8,-,0.00,Snow,Light Snow,250,2013-02-01 22:25:00
3:36 PM,26.6,24.8,93,29.98,1.0,WSW,6.9,-,0.00,Snow,Light Snow,250,2013-02-01 22:36:00
3:44 PM,26.6,24.8,93,29.98,0.5,WSW,8.1,-,0.00,Fog-Snow,Snow,250,2013-02-01 22:44:00
3:53 PM,27.0,24.1,89,30.10,0.8,WSW,6.9,-,0.00,Snow,Light Snow,250,2013-02-01 22:53:00
4:04 PM,26.6,24.8,93,29.99,1.0,WSW,6.9,-,0.00,Snow,Light Snow,250,2013-02-01 23:04:00
4:16 PM,26.6,24.8,93,29.99,1.8,WSW,6.9,-,0.00,Snow,Light Snow,250,2013-02-01 23:16:00
4:36 PM,26.6,24.8,93,30.00,0.8,WSW,8.1,-,0.00,Snow,Light Snow,250,2013-02-01 23:36:00
4:51 PM,26.6,24.8,93,30.00,1.0,WSW,8.1,-,0.00,Snow,Light Snow,250,2013-02-01 23:51:00
4:53 PM,27.0,25.0,92,30.12,1.0,WSW,9.2,-,0.00,Snow,Light Snow,250,2013-02-01 23:53:00
5:04 PM,26.6,24.8,93,30.00,1.5,WSW,9.2,-,0.00,Snow,Light Snow,250,2013-02-02 00:04:00
5:18 PM,26.6,24.8,93,30.00,2.5,WSW,9.2,-,0.00,Snow,Light Snow,250,2013-02-02 00:18:00
5:27 PM,26.6,24.8,93,30.01,3.0,WSW,8.1,-,0.00,Snow,Light Snow,250,2013-02-02 00:27:00
5:53 PM,27.0,25.0,92,30.12,9.0,WSW,5.8,-,0.00,,Overcast,250,2013-02-02 00:53:00
6:53 PM,27.0,24.1,89,30.13,9.0,WSW,6.9,-,N/A,,Overcast,250,2013-02-02 01:53:00
7:14 PM,26.6,24.8,93,30.02,2.5,WSW,6.9,-,0.00,Snow,Light Snow,250,2013-02-02 02:14:00
7:27 PM,26.6,24.8,93,30.03,1.2,WSW,6.9,-,0.00,Snow,Light Snow,250,2013-02-02 02:27:00
7:34 PM,26.6,24.8,93,30.03,1.5,West,8.1,-,0.00,Snow,Light Snow,260,2013-02-02 02:34:00
7:38 PM,28.4,24.8,86,30.03,3.0,West,8.1,-,0.00,Snow,Light Snow,260,2013-02-02 02:38:00
7:50 PM,26.6,26.6,100,30.03,1.8,West,5.8,-,0.01,Snow,Light Snow,260,2013-02-02 02:50:00
7:51 PM,27.0,26.1,96,30.14,1.8,West,5.8,-,0.01,Snow,Light Snow,260,2013-02-02 02:51:00
8:01 PM,28.4,26.6,93,30.03,1.0,West,5.8,-,0.00,Snow,Light Snow,260,2013-02-02 03:01:00
8:08 PM,28.4,26.6,93,30.03,0.8,West,4.6,-,0.00,Snow,Light Snow,260,2013-02-02 03:08:00
8:34 PM,28.4,26.6,93,30.03,1.2,West,3.5,-,0.02,Snow,Light Snow,260,2013-02-02 03:34:00
8:41 PM,28.4,26.6,93,30.03,1.0,West,3.5,-,0.02,Snow,Light Snow,270,2013-02-02 03:41:00
8:49 PM,28.4,26.6,93,30.03,0.8,Calm,Calm,-,0.03,Snow,Light Snow,0,2013-02-02 03:49:00
8:53 PM,28.9,27.0,92,30.13,0.8,Calm,Calm,-,0.03,Snow,Light Snow,0,2013-02-02 03:53:00
8:59 PM,28.4,26.6,93,30.03,1.0,Calm,Calm,-,0.00,Snow,Light Snow,0,2013-02-02 03:59:00
9:05 PM,28.4,26.6,93,30.03,0.8,Calm,Calm,-,0.01,Snow,Light Snow,0,2013-02-02 04:05:00
9:15 PM,28.4,26.6,93,30.03,0.8,Calm,Calm,-,0.02,Snow,Light Snow,0,2013-02-02 04:15:00
9:43 PM,26.6,24.8,93,30.03,1.0,ESE,4.6,-,0.04,Snow,Light Snow,110,2013-02-02 04:43:00
9:53 PM,26.1,24.1,92,30.14,1.5,East,6.9,-,0.04,Snow,Light Snow,80,2013-02-02 04:53:00
9:58 PM,26.6,24.8,93,30.03,3.0,East,8.1,-,0.00,Snow,Light Snow,80,2013-02-02 04:58:00
10:53 PM,25.0,23.0,92,30.14,5.0,ENE,5.8,-,0.00,,Overcast,70,2013-02-02 05:53:00
11:53 PM,25.0,21.9,88,30.15,7.0,ENE,3.5,-,N/A,,Overcast,60,2013-02-02 06:53:00